Time,TemperatureF,DewpointF,PressureIn,WindDirection,WindDirectionDegrees,WindSpeedMPH,WindSpeedGustMPH,Humidity,HourlyPrecipIn,Conditions,Clouds,dailyrainin,SoftwareType,DateUTC
2013-08-25 00:01:00,82.0,67.7,29.45,East,90,5.8,5.8,62,0.00,CLR,,0.00,WeatherDisplay:10.37,2013-08-25 05:01:00,
2013-08-25 00:06:00,82.0,67.7,29.45,East,90,4.0,4.0,62,0.00,CLR,,0.00,WeatherDisplay:10.37,2013-08-25 05:06:00,
2013-08-25 00:11:00,82.0,67.7,29.45,East,90,5.8,5.8,62,0.00,CLR,,0.00,WeatherDisplay:10.37,2013-08-25 05:11:00,
2013-08-25 00:16:00,82.0,67.7,29.45,East,90,5.0,5.0,62,0.00,CLR,,0.00,WeatherDisplay:10.37,2013-08-25 05:16:00,
2013-08-25 00:21:00,82.0,67.7,29.45,East,90,4.6,4.6,62,0.00,CLR,,0.00,WeatherDisplay:10.37,2013-08-25 05:21:00,
2013-08-25 00:26:00,81.0,66.8,29.45,East,90,4.6,4.6,62,0.00,CLR,,0.00,WeatherDisplay:10.37,2013-08-25 05:26:00,
2013-08-25 00:32:00,81.0,67.2,29.45,East,90,5.8,5.8,63,0.00,CLR,,0.00,WeatherDisplay:10.37,2013-08-25 05:32:00,
2013-08-25 00:37:00,81.0,67.2,29.45,East,90,2.3,2.3,63,0.00,CLR,,0.00,WeatherDisplay:10.37,2013-08-25 05:37:00,
2013-08-25 00:42:00,81.0,67.7,29.45,East,90,4.0,4.0,64,0.00,CLR,,0.00,WeatherDisplay:10.37,2013-08-25 05:42:00,
2013-08-25 00:47:00,81.0,67.7,29.45,East,90,6.0,6.0,64,0.00,CLR,,0.00,WeatherDisplay:10.37,2013-08-25 05:47:00,
2013-08-25 00:52:00,81.0,67.7,29.45,East,90,5.8,5.8,64,0.00,CLR,,0.00,WeatherDisplay:10.37,2013-08-25 05:52:00,
2013-08-25 00:57:00,81.0,67.7,29.45,East,90,4.6,4.6,64,0.00,CLR,,0.00,WeatherDisplay:10.37,2013-08-25 05:57:00,
2013-08-25 01:02:00,81.0,67.7,29.45,East,90,4.0,4.0,64,0.00,CLR,,0.00,WeatherDisplay:10.37,2013-08-25 06:02:00,
2013-08-25 01:07:00,81.0,67.2,29.45,SE,135,5.8,5.8,63,0.00,CLR,,0.00,WeatherDisplay:10.37,2013-08-25 06:07:00,
2013-08-25 01:12:00,81.0,67.7,29.45,East,90,5.8,5.8,64,0.00,CLR,,0.00,WeatherDisplay:10.37,2013-08-25 06:12:00,
2013-08-25 01:17:00,81.0,67.7,29.45,SE,135,5.8,5.8,64,0.00,CLR,,0.00,WeatherDisplay:10.37,2013-08-25 06:17:00,
2013-08-25 01:22:00,80.0,66.3,29.45,East,90,4.6,4.6,63,0.00,CLR,,0.00,WeatherDisplay:10.37,2013-08-25 06:22:00,
2013-08-25 01:27:00,80.0,66.7,29.45,ENE,67,6.9,6.9,64,0.00,CLR,,0.00,WeatherDisplay:10.37,2013-08-25 06:27:00,
2013-08-25 01:32:00,80.0,66.7,29.45,East,90,5.8,5.8,64,0.00,CLR,,0.00,WeatherDisplay:10.37,2013-08-25 06:32:00,
2013-08-25 01:37:00,80.0,66.7,29.45,ENE,67,3.5,4.0,64,0.00,CLR,,0.00,WeatherDisplay:10.37,2013-08-25 06:37:00,
2013-08-25 01:42:00,80.0,67.2,29.45,ESE,112,3.5,3.5,65,0.00,CLR,,0.00,WeatherDisplay:10.37,2013-08-25 06:42:00,
2013-08-25 01:47:00,80.0,67.2,29.45,East,90,6.9,6.9,65,0.00,CLR,,0.00,WeatherDisplay:10.37,2013-08-25 06:47:00,
2013-08-25 01:52:00,80.0,67.2,29.45,SSE,157,5.8,5.8,65,0.00,CLR,,0.00,WeatherDisplay:10.37,2013-08-25 06:52:00,
2013-08-25 01:57:00,80.0,67.6,29.45,East,90,6.0,6.0,66,0.00,CLR,,0.00,WeatherDisplay:10.37,2013-08-25 06:57:00,
2013-08-25 02:02:00,79.0,66.7,29.45,East,90,5.0,5.0,66,0.00,CLR,,0.00,WeatherDisplay:10.37,2013-08-25 07:02:00,
2013-08-25 02:07:00,79.0,66.7,29.45,SE,135,3.5,3.5,66,0.00,CLR,,0.00,WeatherDisplay:10.37,2013-08-25 07:07:00,
2013-08-25 02:12:00,79.0,66.7,29.45,East,90,3.5,3.5,66,0.00,CLR,,0.00,WeatherDisplay:10.37,2013-08-25 07:12:00,
2013-08-25 02:17:00,79.0,67.1,29.46,East,90,2.3,2.3,67,0.00,CLR,,0.00,WeatherDisplay:10.37,2013-08-25 07:17:00,
2013-08-25 02:22:00,78.0,66.2,29.46,ESE,112,1.2,1.2,67,0.00,CLR,,0.00,WeatherDisplay:10.37,2013-08-25 07:22:00,
2013-08-25 02:27:00,78.0,66.2,29.46,ENE,67,1.2,0.0,67,0.00,CLR,,0.00,WeatherDisplay:10.37,2013-08-25 07:27:00,
2013-08-25 02:32:00,78.0,66.6,29.46,ENE,67,0.0,0.0,68,0.00,CLR,,0.00,WeatherDisplay:10.37,2013-08-25 07:32:00,
2013-08-25 02:37:00,78.0,67.0,29.46,East,90,4.6,4.6,69,0.00,CLR,,0.00,WeatherDisplay:10.37,2013-08-25 07:37:00,
2013-08-25 02:42:00,78.0,67.0,29.45,East,90,4.0,4.0,69,0.00,CLR,,0.00,WeatherDisplay:10.37,2013-08-25 07:42:00,
2013-08-25 02:47:00,78.0,67.0,29.46,South,180,3.5,3.5,69,0.00,CLR,,0.00,WeatherDisplay:10.37,2013-08-25 07:47:00,
2013-08-25 02:52:00,78.0,67.0,29.46,ESE,112,3.5,3.5,69,0.00,CLR,,0.00,WeatherDisplay:10.37,2013-08-25 07:52:00,
2013-08-25 02:57:00,78.0,66.6,29.46,SE,135,1.2,1.2,68,0.00,CLR,,0.00,WeatherDisplay:10.37,2013-08-25 07:57:00,
2013-08-25 03:02:00,78.0,67.0,29.46,SE,135,2.3,0.0,69,0.00,CLR,,0.00,WeatherDisplay:10.37,2013-08-25 08:02:00,
2013-08-25 03:07:00,78.0,67.0,29.46,SSE,157,3.5,3.5,69,0.00,CLR,,0.00,WeatherDisplay:10.37,2013-08-25 08:07:00,
2013-08-25 03:12:00,77.0,66.0,29.46,ESE,112,1.2,1.2,69,0.00,CLR,,0.00,WeatherDisplay:10.37,2013-08-25 08:12:00,
2013-08-25 03:17:00,77.0,66.5,29.46,ESE,112,0.0,0.0,70,0.00,CLR,,0.00,WeatherDisplay:10.37,2013-08-25 08:17:00,
2013-08-25 03:22:00,77.0,66.9,29.46,ENE,67,2.0,2.0,71,0.00,CLR,,0.00,WeatherDisplay:10.37,2013-08-25 08:22:00,
2013-08-25 03:27:00,77.0,66.9,29.46,ESE,112,0.0,0.0,71,0.00,CLR,,0.00,WeatherDisplay:10.37,2013-08-25 08:27:00,
2013-08-25 03:32:00,76.0,66.3,29.46,SE,135,1.0,1.0,72,0.00,CLR,,0.00,WeatherDisplay:10.37,2013-08-25 08:32:00,
2013-08-25 03:37:00,76.0,66.7,29.46,SE,135,1.2,1.2,73,0.00,CLR,,0.00,WeatherDisplay:10.37,2013-08-25 08:37:00,
2013-08-25 03:42:00,76.0,66.7,29.46,East,90,2.3,2.3,73,0.00,CLR,,0.00,WeatherDisplay:10.37,2013-08-25 08:42:00,
2013-08-25 03:47:00,76.0,66.3,29.46,SSE,157,1.2,1.2,72,0.00,CLR,,0.00,WeatherDisplay:10.37,2013-08-25 08:47:00,
2013-08-25 03:52:00,76.0,66.3,29.46,SSE,157,2.3,0.0,72,0.00,CLR,,0.00,WeatherDisplay:10.37,2013-08-25 08:52:00,
2013-08-25 03:57:00,76.0,66.3,29.46,SSE,157,0.0,0.2,72,0.00,CLR,,0.00,WeatherDisplay:10.37,2013-08-25 08:57:00,
2013-08-25 04:02:00,75.0,65.8,29.46,SSE,157,0.0,0.0,73,0.00,CLR,,0.00,WeatherDisplay:10.37,2013-08-25 09:02:00,
2013-08-25 04:07:00,75.0,65.8,29.46,SSE,157,0.0,0.0,73,0.00,CLR,,0.00,WeatherDisplay:10.37,2013-08-25 09:07:00,
2013-08-25 04:12:00,75.0,66.1,29.46,SSE,157,0.0,0.0,74,0.00,CLR,,0.00,WeatherDisplay:10.37,2013-08-25 09:12:00,
2013-08-25 04:17:00,75.0,66.1,29.46,SSE,157,0.0,0.0,74,0.00,CLR,,0.00,WeatherDisplay:10.37,2013-08-25 09:17:00,
2013-08-25 04:22:00,75.0,66.1,29.46,SSE,157,1.2,1.2,74,0.00,CLR,,0.00,WeatherDisplay:10.37,2013-08-25 09:22:00,
2013-08-25 04:27:00,75.0,66.1,29.47,SSE,157,0.0,0.0,74,0.00,CLR,,0.00,WeatherDisplay:10.37,2013-08-25 09:27:00,
2013-08-25 04:32:00,75.0,66.1,29.47,SSE,157,2.3,0.0,74,0.00,CLR,,0.00,WeatherDisplay:10.37,2013-08-25 09:32:00,
2013-08-25 04:37:00,75.0,66.1,29.47,SSE,157,0.0,0.0,74,0.00,CLR,,0.00,WeatherDisplay:10.37,2013-08-25 09:37:00,
2013-08-25 04:42:00,75.0,66.1,29.47,South,180,0.0,0.0,74,0.00,CLR,,0.00,WeatherDisplay:10.37,2013-08-25 09:42:00,
2013-08-25 04:47:00,75.0,66.1,29.47,South,180,0.0,0.0,74,0.00,CLR,,0.00,WeatherDisplay:10.37,2013-08-25 09:47:00,
2013-08-25 04:52:00,75.0,66.1,29.47,South,180,2.3,2.3,74,0.00,CLR,,0.00,WeatherDisplay:10.37,2013-08-25 09:52:00,
2013-08-25 04:57:00,75.0,66.1,29.47,South,180,1.2,1.2,74,0.00,CLR,,0.00,WeatherDisplay:10.37,2013-08-25 09:57:00,
2013-08-25 05:02:00,75.0,66.1,29.47,South,180,0.0,0.0,74,0.00,CLR,,0.00,WeatherDisplay:10.37,2013-08-25 10:02:00,
2013-08-25 05:07:00,75.0,66.1,29.47,South,180,0.0,0.0,74,0.00,CLR,,0.00,WeatherDisplay:10.37,2013-08-25 10:07:00,
2013-08-25 05:12:00,75.0,66.5,29.47,South,180,1.2,1.2,75,0.00,CLR,,0.00,WeatherDisplay:10.37,2013-08-25 10:12:00,
2013-08-25 05:17:00,74.0,65.6,29.47,South,180,0.0,0.0,75,0.00,CLR,,0.00,WeatherDisplay:10.37,2013-08-25 10:17:00,
2013-08-25 05:23:00,74.0,65.6,29.47,South,180,0.0,0.0,75,0.00,CLR,,0.00,WeatherDisplay:10.37,2013-08-25 10:23:00,
2013-08-25 05:28:00,74.0,65.6,29.47,South,180,0.0,0.0,75,0.00,CLR,,0.00,WeatherDisplay:10.37,2013-08-25 10:28:00,
2013-08-25 05:33:00,74.0,66.0,29.48,South,180,0.0,0.0,76,0.00,CLR,,0.00,WeatherDisplay:10.37,2013-08-25 10:33:00,
2013-08-25 05:38:00,74.0,66.0,29.48,South,180,0.0,0.0,76,0.00,CLR,,0.00,WeatherDisplay:10.37,2013-08-25 10:38:00,
2013-08-25 05:43:00,74.0,66.3,29.49,South,180,0.0,0.0,77,0.00,CLR,,0.00,WeatherDisplay:10.37,2013-08-25 10:43:00,
2013-08-25 05:48:00,73.0,65.7,29.49,South,180,1.2,1.2,78,0.00,CLR,,0.00,WeatherDisplay:10.37,2013-08-25 10:48:00,
2013-08-25 05:53:00,73.0,65.7,29.49,South,180,0.0,0.0,78,0.00,CLR,,0.00,WeatherDisplay:10.37,2013-08-25 10:53:00,
2013-08-25 05:58:00,73.0,65.7,29.49,South,180,0.0,0.0,78,0.00,CLR,,0.00,WeatherDisplay:10.37,2013-08-25 10:58:00,
2013-08-25 06:03:00,73.0,65.7,29.49,South,180,0.0,0.0,78,0.00,CLR,,0.00,WeatherDisplay:10.37,2013-08-25 11:03:00,
2013-08-25 06:08:00,73.0,66.1,29.49,South,180,0.0,0.0,79,0.00,CLR,,0.00,WeatherDisplay:10.37,2013-08-25 11:08:00,
2013-08-25 06:13:00,73.0,66.1,29.49,South,180,0.0,0.0,79,0.00,CLR,,0.00,WeatherDisplay:10.37,2013-08-25 11:13:00,
2013-08-25 06:18:00,73.0,66.5,29.49,South,180,0.0,0.0,80,0.00,CLR,,0.00,WeatherDisplay:10.37,2013-08-25 11:18:00,
2013-08-25 06:23:00,72.0,65.8,29.49,SE,135,0.0,0.0,81,0.00,CLR,,0.00,WeatherDisplay:10.37,2013-08-25 11:23:00,
2013-08-25 06:28:00,72.0,65.8,29.49,SE,135,0.0,0.0,81,0.00,CLR,,0.00,WeatherDisplay:10.37,2013-08-25 11:28:00,
2013-08-25 06:33:00,72.0,66.2,29.49,SE,135,0.0,0.0,82,0.00,CLR,,0.00,WeatherDisplay:10.37,2013-08-25 11:33:00,
2013-08-25 06:38:00,72.0,66.2,29.49,SE,135,0.0,0.0,82,0.00,CLR,,0.00,WeatherDisplay:10.37,2013-08-25 11:38:00,
2013-08-25 06:43:00,72.0,66.2,29.49,SE,135,0.0,0.0,82,0.00,CLR,,0.00,WeatherDisplay:10.37,2013-08-25 11:43:00,
2013-08-25 06:48:00,72.0,66.6,29.49,SE,135,0.0,0.0,83,0.00,CLR,,0.00,WeatherDisplay:10.37,2013-08-25 11:48:00,
2013-08-25 06:53:00,72.0,66.9,29.49,SE,135,0.0,0.0,84,0.00,CLR,,0.00,WeatherDisplay:10.37,2013-08-25 11:53:00,
2013-08-25 06:58:00,72.0,66.9,29.49,SE,135,0.0,0.0,84,0.00,CLR,,0.00,WeatherDisplay:10.37,2013-08-25 11:58:00,
2013-08-25 07:03:00,72.0,66.9,29.50,SE,135,0.0,0.0,84,0.00,CLR,,0.00,WeatherDisplay:10.37,2013-08-25 12:03:00,
2013-08-25 07:08:00,72.0,66.9,29.50,SE,135,0.0,0.0,84,0.00,CLR,,0.00,WeatherDisplay:10.37,2013-08-25 12:08:00,
2013-08-25 07:13:00,73.0,67.5,29.50,ESE,112,2.3,2.3,83,0.00,CLR,,0.00,WeatherDisplay:10.37,2013-08-25 12:13:00,
2013-08-25 07:18:00,73.0,67.2,29.51,East,90,3.5,3.5,82,0.00,CLR,,0.00,WeatherDisplay:10.37,2013-08-25 12:18:00,
2013-08-25 07:23:00,74.0,67.8,29.51,East,90,4.0,4.0,81,0.00,CLR,,0.00,WeatherDisplay:10.37,2013-08-25 12:23:00,
2013-08-25 07:28:00,74.0,67.1,29.51,East,90,4.6,4.6,79,0.00,CLR,,0.00,WeatherDisplay:10.37,2013-08-25 12:28:00,
2013-08-25 07:33:00,74.0,66.7,29.52,East,90,3.5,3.5,78,0.00,CLR,,0.00,WeatherDisplay:10.37,2013-08-25 12:33:00,
2013-08-25 07:38:00,75.0,67.7,29.52,East,90,3.5,3.5,78,0.00,CLR,,0.00,WeatherDisplay:10.37,2013-08-25 12:38:00,
2013-08-25 07:43:00,75.0,67.7,29.52,ENE,67,3.5,3.5,78,0.00,CLR,,0.00,WeatherDisplay:10.37,2013-08-25 12:43:00,
2013-08-25 07:48:00,76.0,67.9,29.52,ENE,67,3.5,3.5,76,0.00,CLR,,0.00,WeatherDisplay:10.37,2013-08-25 12:48:00,
2013-08-25 07:53:00,76.0,67.5,29.52,East,90,4.6,4.6,75,0.00,CLR,,0.00,WeatherDisplay:10.37,2013-08-25 12:53:00,
2013-08-25 07:58:00,77.0,68.1,29.52,ENE,67,3.5,3.5,74,0.00,CLR,,0.00,WeatherDisplay:10.37,2013-08-25 12:58:00,
2013-08-25 08:03:00,77.0,67.3,29.52,East,90,3.5,3.5,72,0.00,CLR,,0.00,WeatherDisplay:10.37,2013-08-25 13:03:00,
2013-08-25 08:08:00,78.0,67.4,29.52,East,90,5.0,5.0,70,0.00,CLR,,0.00,WeatherDisplay:10.37,2013-08-25 13:08:00,
2013-08-25 08:13:00,79.0,68.4,29.52,East,90,3.5,3.5,70,0.00,CLR,,0.00,WeatherDisplay:10.37,2013-08-25 13:13:00,
2013-08-25 08:18:00,79.0,68.0,29.52,East,90,3.5,3.5,69,0.00,CLR,,0.00,WeatherDisplay:10.37,2013-08-25 13:18:00,
2013-08-25 08:23:00,80.0,68.1,29.52,East,90,3.5,3.5,67,0.00,CLR,,0.00,WeatherDisplay:10.37,2013-08-25 13:23:00,
2013-08-25 08:28:00,80.0,68.1,29.53,ENE,67,4.0,4.0,67,0.00,CLR,,0.00,WeatherDisplay:10.37,2013-08-25 13:28:00,
2013-08-25 08:33:00,81.0,67.7,29.54,NE,45,5.8,5.8,64,0.00,CLR,,0.00,WeatherDisplay:10.37,2013-08-25 13:33:00,
2013-08-25 08:38:00,81.0,68.1,29.54,ESE,112,3.5,3.5,65,0.00,CLR,,0.00,WeatherDisplay:10.37,2013-08-25 13:38:00,
2013-08-25 08:43:00,82.0,68.2,29.54,ENE,67,3.5,3.5,63,0.00,CLR,,0.00,WeatherDisplay:10.37,2013-08-25 13:43:00,
2013-08-25 08:48:00,82.0,68.2,29.54,SE,135,4.6,4.6,63,0.00,CLR,,0.00,WeatherDisplay:10.37,2013-08-25 13:48:00,
2013-08-25 08:53:00,83.0,68.6,29.54,East,90,6.0,6.0,62,0.00,CLR,,0.00,WeatherDisplay:10.37,2013-08-25 13:53:00,
2013-08-25 08:58:00,83.0,68.6,29.54,South,180,3.5,3.5,62,0.00,CLR,,0.00,WeatherDisplay:10.37,2013-08-25 13:58:00,
2013-08-25 09:03:00,84.0,69.1,29.54,NE,45,5.8,5.8,61,0.00,CLR,,0.00,WeatherDisplay:10.37,2013-08-25 14:03:00,
2013-08-25 09:08:00,84.0,69.1,29.54,SE,135,2.3,2.3,61,0.00,CLR,,0.00,WeatherDisplay:10.37,2013-08-25 14:08:00,
2013-08-25 09:13:00,85.0,69.1,29.54,South,180,2.3,2.3,59,0.00,CLR,,0.00,WeatherDisplay:10.37,2013-08-25 14:13:00,
2013-08-25 09:18:00,86.0,69.5,29.54,SSE,157,0.0,0.0,58,0.00,CLR,,0.00,WeatherDisplay:10.37,2013-08-25 14:18:00,
2013-08-25 09:23:00,86.0,68.5,29.54,North,360,3.5,3.5,56,0.00,CLR,,0.00,WeatherDisplay:10.37,2013-08-25 14:23:00,
2013-08-25 09:28:00,86.0,68.5,29.55,South,180,5.8,5.8,56,0.00,CLR,,0.00,WeatherDisplay:10.37,2013-08-25 14:28:00,
2013-08-25 09:33:00,86.0,68.5,29.55,East,90,3.5,3.5,56,0.00,CLR,,0.00,WeatherDisplay:10.37,2013-08-25 14:33:00,
2013-08-25 09:38:00,86.0,69.0,29.55,SE,135,2.3,2.3,57,0.00,CLR,,0.00,WeatherDisplay:10.37,2013-08-25 14:38:00,
2013-08-25 09:43:00,88.0,69.3,29.56,East,90,2.3,2.3,54,0.00,CLR,,0.00,WeatherDisplay:10.37,2013-08-25 14:43:00,
2013-08-25 09:48:00,88.0,69.3,29.56,ESE,112,4.6,4.6,54,0.00,CLR,,0.00,WeatherDisplay:10.37,2013-08-25 14:48:00,
2013-08-25 09:53:00,88.0,68.7,29.56,ENE,67,5.8,5.8,53,0.00,CLR,,0.00,WeatherDisplay:10.37,2013-08-25 14:53:00,
2013-08-25 09:58:00,88.0,68.7,29.56,ENE,67,4.6,4.6,53,0.00,CLR,,0.00,WeatherDisplay:10.37,2013-08-25 14:58:00,
2013-08-25 10:03:00,87.0,68.3,29.56,ESE,112,4.6,4.6,54,0.00,CLR,,0.00,WeatherDisplay:10.37,2013-08-25 15:03:00,
2013-08-25 10:08:00,88.0,69.3,29.56,SE,135,3.5,3.5,54,0.00,CLR,,0.00,WeatherDisplay:10.37,2013-08-25 15:08:00,
2013-08-25 10:13:00,88.0,68.2,29.56,SSE,157,6.9,6.9,52,0.00,CLR,,0.00,WeatherDisplay:10.37,2013-08-25 15:13:00,
2013-08-25 10:18:00,89.0,68.5,29.56,NE,45,5.8,5.8,51,0.00,CLR,,0.00,WeatherDisplay:10.37,2013-08-25 15:18:00,
2013-08-25 10:23:00,89.0,68.5,29.57,ESE,112,1.2,1.2,51,0.00,CLR,,0.00,WeatherDisplay:10.37,2013-08-25 15:23:00,
2013-08-25 10:28:00,90.0,68.9,29.56,North,360,3.5,3.5,50,0.00,CLR,,0.00,WeatherDisplay:10.37,2013-08-25 15:28:00,
2013-08-25 10:33:00,90.0,68.9,29.57,East,90,6.9,6.9,50,0.00,CLR,,0.00,WeatherDisplay:10.37,2013-08-25 15:33:00,
2013-08-25 10:38:00,90.0,68.9,29.57,East,90,3.5,3.7,50,0.00,CLR,,0.00,WeatherDisplay:10.37,2013-08-25 15:38:00,
2013-08-25 10:43:00,90.0,68.3,29.57,SE,135,5.8,5.8,49,0.00,CLR,,0.00,WeatherDisplay:10.37,2013-08-25 15:43:00,
2013-08-25 10:48:00,90.0,68.3,29.57,East,90,6.0,6.0,49,0.00,CLR,,0.00,WeatherDisplay:10.37,2013-08-25 15:48:00,
2013-08-25 10:53:00,89.0,67.9,29.57,East,90,8.0,8.0,50,0.00,CLR,,0.00,WeatherDisplay:10.37,2013-08-25 15:53:00,
2013-08-25 10:58:00,89.0,67.9,29.57,ENE,67,5.8,5.8,50,0.00,CLR,,0.00,WeatherDisplay:10.37,2013-08-25 15:58:00,
2013-08-25 11:03:00,90.0,68.3,29.57,East,90,4.0,4.0,49,0.00,CLR,,0.00,WeatherDisplay:10.37,2013-08-25 16:03:00,
2013-08-25 11:08:00,90.0,68.3,29.57,East,90,6.0,6.0,49,0.00,CLR,,0.00,WeatherDisplay:10.37,2013-08-25 16:08:00,
2013-08-25 11:13:00,90.0,67.1,29.57,East,90,6.9,6.9,47,0.00,CLR,,0.00,WeatherDisplay:10.37,2013-08-25 16:13:00,
2013-08-25 11:18:00,90.0,66.4,29.57,ESE,112,8.1,8.1,46,0.00,CLR,,0.00,WeatherDisplay:10.37,2013-08-25 16:18:00,
2013-08-25 11:23:00,90.0,67.7,29.57,ENE,67,8.1,8.1,48,0.00,CLR,,0.00,WeatherDisplay:10.37,2013-08-25 16:23:00,
2013-08-25 11:28:00,90.0,67.1,29.56,NE,45,5.8,5.8,47,0.00,CLR,,0.00,WeatherDisplay:10.37,2013-08-25 16:28:00,
2013-08-25 11:33:00,91.0,66.1,29.56,ESE,112,6.0,6.0,44,0.00,CLR,,0.00,WeatherDisplay:10.37,2013-08-25 16:33:00,
2013-08-25 11:39:00,91.0,66.1,29.56,East,90,8.1,8.1,44,0.00,CLR,,0.00,WeatherDisplay:10.37,2013-08-25 16:39:00,
2013-08-25 11:44:00,91.0,66.1,29.56,ESE,112,9.2,9.2,44,0.00,CLR,,0.00,WeatherDisplay:10.37,2013-08-25 16:44:00,
2013-08-25 11:49:00,91.0,65.4,29.56,East,90,10.4,10.4,43,0.00,CLR,,0.00,WeatherDisplay:10.37,2013-08-25 16:49:00,
2013-08-25 11:54:00,91.0,66.1,29.56,East,90,8.1,8.1,44,0.00,CLR,,0.00,WeatherDisplay:10.37,2013-08-25 16:54:00,
2013-08-25 11:59:00,91.0,66.1,29.56,East,90,9.2,9.2,44,0.00,CLR,,0.00,WeatherDisplay:10.37,2013-08-25 16:59:00,
2013-08-25 12:04:00,91.0,64.7,29.56,South,180,11.5,11.5,42,0.00,CLR,,0.00,WeatherDisplay:10.37,2013-08-25 17:04:00,
2013-08-25 12:09:00,92.0,65.6,29.56,South,180,5.8,5.8,42,0.00,CLR,,0.00,WeatherDisplay:10.37,2013-08-25 17:09:00,
2013-08-25 12:14:00,92.0,64.9,29.56,SE,135,5.8,5.8,41,0.00,CLR,,0.00,WeatherDisplay:10.37,2013-08-25 17:14:00,
2013-08-25 12:19:00,92.0,64.2,29.56,ESE,112,5.0,5.0,40,0.00,CLR,,0.00,WeatherDisplay:10.37,2013-08-25 17:19:00,
2013-08-25 12:24:00,93.0,65.1,29.56,East,90,7.0,7.0,40,0.00,CLR,,0.00,WeatherDisplay:10.37,2013-08-25 17:24:00,
2013-08-25 12:29:00,93.0,64.4,29.56,SW,225,6.9,6.9,39,0.00,CLR,,0.00,WeatherDisplay:10.37,2013-08-25 17:29:00,
2013-08-25 12:34:00,93.0,63.6,29.55,ESE,112,3.5,3.5,38,0.00,CLR,,0.00,WeatherDisplay:10.37,2013-08-25 17:34:00,
2013-08-25 12:39:00,92.0,62.8,29.55,SE,135,4.6,4.6,38,0.00,CLR,,0.00,WeatherDisplay:10.37,2013-08-25 17:39:00,
2013-08-25 12:44:00,92.0,64.2,29.55,East,90,6.0,6.0,40,0.00,CLR,,0.00,WeatherDisplay:10.37,2013-08-25 17:44:00,
2013-08-25 12:49:00,92.0,64.2,29.55,SE,135,6.9,6.9,40,0.00,CLR,,0.00,WeatherDisplay:10.37,2013-08-25 17:49:00,
2013-08-25 12:54:00,92.0,65.6,29.54,SSE,157,6.9,6.9,42,0.00,CLR,,0.00,WeatherDisplay:10.37,2013-08-25 17:54:00,
2013-08-25 12:59:00,93.0,65.1,29.54,East,90,6.0,6.0,40,0.00,CLR,,0.00,WeatherDisplay:10.37,2013-08-25 17:59:00,
2013-08-25 13:04:00,93.0,65.1,29.54,ENE,67,8.0,8.0,40,0.00,CLR,,0.00,WeatherDisplay:10.37,2013-08-25 18:04:00,
2013-08-25 13:09:00,93.0,64.4,29.54,East,90,5.8,5.8,39,0.00,CLR,,0.00,WeatherDisplay:10.37,2013-08-25 18:09:00,
2013-08-25 13:14:00,94.0,64.5,29.54,SW,225,8.1,8.1,38,0.00,CLR,,0.00,WeatherDisplay:10.37,2013-08-25 18:14:00,
2013-08-25 13:19:00,93.0,64.4,29.54,ENE,67,6.9,6.9,39,0.00,CLR,,0.00,WeatherDisplay:10.37,2013-08-25 18:19:00,
2013-08-25 13:24:00,93.0,63.6,29.54,East,90,7.0,7.0,38,0.00,CLR,,0.00,WeatherDisplay:10.37,2013-08-25 18:24:00,
2013-08-25 13:29:00,94.0,64.5,29.54,East,90,5.8,5.8,38,0.00,CLR,,0.00,WeatherDisplay:10.37,2013-08-25 18:29:00,
2013-08-25 13:34:00,94.0,63.8,29.54,South,180,6.9,6.9,37,0.00,CLR,,0.00,WeatherDisplay:10.37,2013-08-25 18:34:00,
2013-08-25 13:39:00,94.0,62.2,29.54,SSE,157,3.5,3.5,35,0.00,CLR,,0.00,WeatherDisplay:10.37,2013-08-25 18:39:00,
2013-08-25 13:44:00,94.0,61.4,29.54,SE,135,3.5,3.5,34,0.00,CLR,,0.00,WeatherDisplay:10.37,2013-08-25 18:44:00,
2013-08-25 13:49:00,94.0,63.0,29.54,South,180,5.8,5.8,36,0.00,CLR,,0.00,WeatherDisplay:10.37,2013-08-25 18:49:00,
2013-08-25 13:54:00,93.0,61.3,29.54,SE,135,2.3,2.3,35,0.00,CLR,,0.00,WeatherDisplay:10.37,2013-08-25 18:54:00,
2013-08-25 13:59:00,93.0,61.3,29.54,East,90,8.1,8.1,35,0.00,CLR,,0.00,WeatherDisplay:10.37,2013-08-25 18:59:00,
2013-08-25 14:04:00,94.0,62.2,29.54,ENE,67,9.2,9.2,35,0.00,CLR,,0.00,WeatherDisplay:10.37,2013-08-25 19:04:00,
2013-08-25 14:09:00,93.0,61.3,29.54,ESE,112,8.1,8.1,35,0.00,CLR,,0.00,WeatherDisplay:10.37,2013-08-25 19:09:00,
2013-08-25 14:14:00,94.0,63.0,29.54,ESE,112,2.3,2.3,36,0.00,CLR,,0.00,WeatherDisplay:10.37,2013-08-25 19:14:00,
2013-08-25 14:19:00,94.0,61.4,29.54,East,90,6.9,6.9,34,0.00,CLR,,0.00,WeatherDisplay:10.37,2013-08-25 19:19:00,
2013-08-25 14:24:00,94.0,61.4,29.54,South,180,4.6,4.9,34,0.00,CLR,,0.00,WeatherDisplay:10.37,2013-08-25 19:24:00,
2013-08-25 14:29:00,95.0,62.2,29.54,ESE,112,6.0,6.0,34,0.00,CLR,,0.00,WeatherDisplay:10.37,2013-08-25 19:29:00,
2013-08-25 14:34:00,95.0,61.4,29.54,ENE,67,6.9,6.9,33,0.00,CLR,,0.00,WeatherDisplay:10.37,2013-08-25 19:34:00,
2013-08-25 14:39:00,94.0,62.2,29.54,NE,45,4.6,4.6,35,0.00,CLR,,0.00,WeatherDisplay:10.37,2013-08-25 19:39:00,
2013-08-25 14:44:00,95.0,63.9,29.53,NE,45,6.0,6.0,36,0.00,CLR,,0.00,WeatherDisplay:10.37,2013-08-25 19:44:00,
2013-08-25 14:49:00,95.0,62.2,29.53,South,180,6.0,6.0,34,0.00,CLR,,0.00,WeatherDisplay:10.37,2013-08-25 19:49:00,
2013-08-25 14:54:00,95.0,62.2,29.53,South,180,6.9,6.9,34,0.00,CLR,,0.00,WeatherDisplay:10.37,2013-08-25 19:54:00,
2013-08-25 14:59:00,96.0,63.1,29.53,SSE,157,9.2,9.2,34,0.00,CLR,,0.00,WeatherDisplay:10.37,2013-08-25 19:59:00,
2013-08-25 15:04:00,95.0,62.2,29.53,East,90,6.9,6.9,34,0.00,CLR,,0.00,WeatherDisplay:10.37,2013-08-25 20:04:00,
2013-08-25 15:09:00,95.0,62.2,29.53,NE,45,6.0,6.0,34,0.00,CLR,,0.00,WeatherDisplay:10.37,2013-08-25 20:09:00,
2013-08-25 15:14:00,95.0,63.1,29.53,SSE,157,4.0,4.0,35,0.00,CLR,,0.00,WeatherDisplay:10.37,2013-08-25 20:14:00,
2013-08-25 15:19:00,95.0,63.1,29.53,South,180,9.2,9.2,35,0.00,CLR,,0.00,WeatherDisplay:10.37,2013-08-25 20:19:00,
2013-08-25 15:24:00,96.0,63.1,29.52,East,90,7.0,7.0,34,0.00,CLR,,0.00,WeatherDisplay:10.37,2013-08-25 20:24:00,
2013-08-25 15:29:00,95.0,62.2,29.52,East,90,6.9,6.9,34,0.00,CLR,,0.00,WeatherDisplay:10.37,2013-08-25 20:29:00,
2013-08-25 15:34:00,95.0,62.2,29.52,South,180,11.5,11.5,34,0.00,CLR,,0.00,WeatherDisplay:10.37,2013-08-25 20:34:00,
2013-08-25 15:39:00,96.0,62.3,29.52,East,90,10.4,10.4,33,0.00,CLR,,0.00,WeatherDisplay:10.37,2013-08-25 20:39:00,
2013-08-25 15:44:00,96.0,63.1,29.52,East,90,8.1,8.1,34,0.00,CLR,,0.00,WeatherDisplay:10.37,2013-08-25 20:44:00,
2013-08-25 15:49:00,96.0,62.3,29.51,East,90,10.4,10.4,33,0.00,CLR,,0.00,WeatherDisplay:10.37,2013-08-25 20:49:00,
2013-08-25 15:54:00,96.0,63.1,29.52,South,180,7.0,7.0,34,0.00,CLR,,0.00,WeatherDisplay:10.37,2013-08-25 20:54:00,
2013-08-25 15:59:00,97.0,64.0,29.51,East,90,7.0,7.0,34,0.00,CLR,,0.00,WeatherDisplay:10.37,2013-08-25 20:59:00,
2013-08-25 16:04:00,97.0,64.0,29.52,South,180,6.0,6.0,34,0.00,CLR,,0.00,WeatherDisplay:10.37,2013-08-25 21:04:00,
2013-08-25 16:09:00,97.0,63.1,29.52,East,90,3.5,3.5,33,0.00,CLR,,0.00,WeatherDisplay:10.37,2013-08-25 21:09:00,
2013-08-25 16:14:00,98.0,63.1,29.52,East,90,9.2,9.2,32,0.00,CLR,,0.00,WeatherDisplay:10.37,2013-08-25 21:14:00,
2013-08-25 16:19:00,97.0,63.1,29.51,East,90,4.6,4.6,33,0.00,CLR,,0.00,WeatherDisplay:10.37,2013-08-25 21:19:00,
2013-08-25 16:24:00,97.0,63.1,29.51,SSE,157,6.0,6.0,33,0.00,CLR,,0.00,WeatherDisplay:10.37,2013-08-25 21:24:00,
2013-08-25 16:29:00,97.0,63.1,29.51,East,90,6.9,6.9,33,0.00,CLR,,0.00,WeatherDisplay:10.37,2013-08-25 21:29:00,
2013-08-25 16:34:00,95.0,62.2,29.51,East,90,8.1,8.1,34,0.00,CLR,,0.00,WeatherDisplay:10.37,2013-08-25 21:34:00,
2013-08-25 16:39:00,95.0,63.1,29.51,East,90,6.9,6.9,35,0.00,CLR,,0.00,WeatherDisplay:10.37,2013-08-25 21:39:00,
2013-08-25 16:44:00,95.0,63.1,29.50,SE,135,3.5,3.5,35,0.00,CLR,,0.00,WeatherDisplay:10.37,2013-08-25 21:44:00,
2013-08-25 16:49:00,95.0,62.2,29.50,ESE,112,5.8,5.8,34,0.00,CLR,,0.00,WeatherDisplay:10.37,2013-08-25 21:49:00,
2013-08-25 16:54:00,95.0,62.2,29.50,ESE,112,3.5,3.5,34,0.00,CLR,,0.00,WeatherDisplay:10.37,2013-08-25 21:54:00,
2013-08-25 16:59:00,96.0,62.3,29.51,South,180,3.5,3.5,33,0.00,CLR,,0.00,WeatherDisplay:10.37,2013-08-25 21:59:00,
2013-08-25 17:04:00,96.0,63.1,29.51,NE,45,4.0,4.0,34,0.00,CLR,,0.00,WeatherDisplay:10.37,2013-08-25 22:04:00,
2013-08-25 17:09:00,96.0,62.3,29.50,NE,45,6.0,6.4,33,0.00,CLR,,0.00,WeatherDisplay:10.37,2013-08-25 22:09:00,
2013-08-25 17:14:00,95.0,62.2,29.50,SE,135,9.2,9.2,34,0.00,CLR,,0.00,WeatherDisplay:10.37,2013-08-25 22:14:00,
2013-08-25 17:19:00,94.0,60.5,29.50,South,180,6.9,6.9,33,0.00,CLR,,0.00,WeatherDisplay:10.37,2013-08-25 22:19:00,
2013-08-25 17:25:00,94.0,62.2,29.50,South,180,3.5,3.5,35,0.00,CLR,,0.00,WeatherDisplay:10.37,2013-08-25 22:25:00,
2013-08-25 17:30:00,95.0,62.2,29.50,SSE,157,3.5,3.5,34,0.00,CLR,,0.00,WeatherDisplay:10.37,2013-08-25 22:30:00,
2013-08-25 17:35:00,95.0,61.4,29.50,NNW,337,4.6,4.6,33,0.00,CLR,,0.00,WeatherDisplay:10.37,2013-08-25 22:35:00,
2013-08-25 17:40:00,95.0,61.4,29.49,East,90,5.8,5.8,33,0.00,CLR,,0.00,WeatherDisplay:10.37,2013-08-25 22:40:00,
2013-08-25 17:45:00,95.0,62.2,29.50,ESE,112,8.1,8.1,34,0.00,CLR,,0.00,WeatherDisplay:10.37,2013-08-25 22:45:00,
2013-08-25 17:50:00,95.0,62.2,29.49,ENE,67,5.0,5.0,34,0.00,CLR,,0.00,WeatherDisplay:10.37,2013-08-25 22:50:00,
2013-08-25 17:55:00,95.0,62.2,29.49,South,180,5.0,5.0,34,0.00,CLR,,0.00,WeatherDisplay:10.37,2013-08-25 22:55:00,
2013-08-25 18:00:00,95.0,62.2,29.50,East,90,6.0,6.0,34,0.00,CLR,,0.00,WeatherDisplay:10.37,2013-08-25 23:00:00,
2013-08-25 18:05:00,95.0,62.2,29.49,SE,135,3.0,3.0,34,0.00,CLR,,0.00,WeatherDisplay:10.37,2013-08-25 23:05:00,
2013-08-25 18:10:00,95.0,62.2,29.49,ESE,112,7.0,7.0,34,0.00,CLR,,0.00,WeatherDisplay:10.37,2013-08-25 23:10:00,
2013-08-25 18:15:00,95.0,62.2,29.49,East,90,5.8,5.8,34,0.00,CLR,,0.00,WeatherDisplay:10.37,2013-08-25 23:15:00,
2013-08-25 18:20:00,94.0,61.4,29.49,East,90,6.0,6.0,34,0.00,CLR,,0.00,WeatherDisplay:10.37,2013-08-25 23:20:00,
2013-08-25 18:25:00,94.0,61.4,29.49,ESE,112,6.9,6.9,34,0.00,CLR,,0.00,WeatherDisplay:10.37,2013-08-25 23:25:00,
2013-08-25 18:30:00,94.0,62.2,29.49,SE,135,8.1,8.1,35,0.00,CLR,,0.00,WeatherDisplay:10.37,2013-08-25 23:30:00,
2013-08-25 18:35:00,94.0,62.2,29.49,SSE,157,5.8,5.8,35,0.00,CLR,,0.00,WeatherDisplay:10.37,2013-08-25 23:35:00,
2013-08-25 18:40:00,94.0,62.2,29.49,ESE,112,6.0,6.0,35,0.00,CLR,,0.00,WeatherDisplay:10.37,2013-08-25 23:40:00,
2013-08-25 18:45:00,93.0,61.3,29.49,ESE,112,6.9,6.9,35,0.00,CLR,,0.00,WeatherDisplay:10.37,2013-08-25 23:45:00,
2013-08-25 18:50:00,93.0,62.1,29.49,East,90,5.8,5.8,36,0.00,CLR,,0.00,WeatherDisplay:10.37,2013-08-25 23:50:00,
2013-08-25 18:55:00,93.0,62.1,29.48,East,90,8.1,8.1,36,0.00,CLR,,0.00,WeatherDisplay:10.37,2013-08-25 23:55:00,
2013-08-25 19:00:00,93.0,62.1,29.48,SE,135,5.0,5.2,36,0.00,CLR,,0.00,WeatherDisplay:10.37,2013-08-26 00:00:00,
2013-08-25 19:05:00,92.0,61.2,29.48,East,90,6.9,6.9,36,0.00,CLR,,0.00,WeatherDisplay:10.37,2013-08-26 00:05:00,
2013-08-25 19:10:00,93.0,62.1,29.48,East,90,11.5,11.5,36,0.00,CLR,,0.00,WeatherDisplay:10.37,2013-08-26 00:10:00,
2013-08-25 19:15:00,92.0,61.2,29.48,SE,135,7.0,7.0,36,0.00,CLR,,0.00,WeatherDisplay:10.37,2013-08-26 00:15:00,
2013-08-25 19:20:00,92.0,61.2,29.48,East,90,4.0,4.0,36,0.00,CLR,,0.00,WeatherDisplay:10.37,2013-08-26 00:20:00,
2013-08-25 19:25:00,91.0,60.3,29.48,East,90,7.0,7.0,36,0.00,CLR,,0.00,WeatherDisplay:10.37,2013-08-26 00:25:00,
2013-08-25 19:30:00,91.0,61.1,29.48,ENE,67,3.5,3.5,37,0.00,CLR,,0.00,WeatherDisplay:10.37,2013-08-26 00:30:00,
2013-08-25 19:35:00,91.0,61.9,29.48,East,90,6.0,6.0,38,0.00,CLR,,0.00,WeatherDisplay:10.37,2013-08-26 00:35:00,
2013-08-25 19:40:00,90.0,61.0,29.48,South,180,5.8,5.8,38,0.00,CLR,,0.00,WeatherDisplay:10.37,2013-08-26 00:40:00,
2013-08-25 19:45:00,90.0,61.7,29.48,SE,135,5.8,5.8,39,0.00,CLR,,0.00,WeatherDisplay:10.37,2013-08-26 00:45:00,
2013-08-25 19:50:00,90.0,61.7,29.48,ESE,112,5.8,5.8,39,0.00,CLR,,0.00,WeatherDisplay:10.37,2013-08-26 00:50:00,
2013-08-25 19:55:00,89.0,61.5,29.48,East,90,4.0,4.0,40,0.00,CLR,,0.00,WeatherDisplay:10.37,2013-08-26 00:55:00,
2013-08-25 20:00:00,89.0,61.5,29.48,ESE,112,5.8,5.8,40,0.00,CLR,,0.00,WeatherDisplay:10.37,2013-08-26 01:00:00,
2013-08-25 20:05:00,89.0,62.2,29.48,East,90,5.8,5.8,41,0.00,CLR,,0.00,WeatherDisplay:10.37,2013-08-26 01:05:00,
2013-08-25 20:10:00,88.0,62.0,29.48,East,90,3.5,3.5,42,0.00,CLR,,0.00,WeatherDisplay:10.37,2013-08-26 01:10:00,
2013-08-25 20:15:00,88.0,62.0,29.48,East,90,5.8,5.8,42,0.00,CLR,,0.00,WeatherDisplay:10.37,2013-08-26 01:15:00,
2013-08-25 20:20:00,88.0,62.0,29.48,East,90,6.9,6.9,42,0.00,CLR,,0.00,WeatherDisplay:10.37,2013-08-26 01:20:00,
2013-08-25 20:25:00,87.0,61.8,29.48,ENE,67,3.5,3.5,43,0.00,CLR,,0.00,WeatherDisplay:10.37,2013-08-26 01:25:00,
2013-08-25 20:30:00,87.0,62.5,29.48,East,90,3.5,3.5,44,0.00,CLR,,0.00,WeatherDisplay:10.37,2013-08-26 01:30:00,
2013-08-25 20:35:00,87.0,62.5,29.48,ESE,112,4.6,4.6,44,0.00,CLR,,0.00,WeatherDisplay:10.37,2013-08-26 01:35:00,
2013-08-25 20:40:00,87.0,62.5,29.48,East,90,4.6,4.6,44,0.00,CLR,,0.00,WeatherDisplay:10.37,2013-08-26 01:40:00,
2013-08-25 20:45:00,87.0,62.5,29.48,East,90,3.5,3.5,44,0.00,CLR,,0.00,WeatherDisplay:10.37,2013-08-26 01:45:00,
2013-08-25 20:50:00,87.0,62.5,29.48,East,90,2.3,2.3,44,0.00,CLR,,0.00,WeatherDisplay:10.37,2013-08-26 01:50:00,
2013-08-25 20:55:00,86.0,62.2,29.48,ESE,112,4.6,4.6,45,0.00,CLR,,0.00,WeatherDisplay:10.37,2013-08-26 01:55:00,
2013-08-25 21:00:00,86.0,62.8,29.48,East,90,6.0,6.0,46,0.00,CLR,,0.00,WeatherDisplay:10.37,2013-08-26 02:00:00,
2013-08-25 21:05:00,86.0,62.8,29.48,East,90,5.8,5.8,46,0.00,CLR,,0.00,WeatherDisplay:10.37,2013-08-26 02:05:00,
2013-08-25 21:10:00,86.0,62.8,29.49,East,90,5.8,5.8,46,0.00,CLR,,0.00,WeatherDisplay:10.37,2013-08-26 02:10:00,
2013-08-25 21:15:00,86.0,62.8,29.49,East,90,5.8,5.8,46,0.00,CLR,,0.00,WeatherDisplay:10.37,2013-08-26 02:15:00,
2013-08-25 21:20:00,85.0,62.5,29.49,East,90,3.5,3.5,47,0.00,CLR,,0.00,WeatherDisplay:10.37,2013-08-26 02:20:00,
2013-08-25 21:25:00,85.0,62.5,29.49,East,90,5.0,5.0,47,0.00,CLR,,0.00,WeatherDisplay:10.37,2013-08-26 02:25:00,
2013-08-25 21:30:00,85.0,63.1,29.49,East,90,4.0,4.0,48,0.00,CLR,,0.00,WeatherDisplay:10.37,2013-08-26 02:30:00,
2013-08-25 21:35:00,85.0,63.1,29.49,ESE,112,3.5,3.5,48,0.00,CLR,,0.00,WeatherDisplay:10.37,2013-08-26 02:35:00,
2013-08-25 21:40:00,85.0,63.7,29.49,East,90,5.0,5.0,49,0.00,CLR,,0.00,WeatherDisplay:10.37,2013-08-26 02:40:00,
2013-08-25 21:45:00,85.0,63.7,29.49,East,90,6.0,6.0,49,0.00,CLR,,0.00,WeatherDisplay:10.37,2013-08-26 02:45:00,
2013-08-25 21:50:00,84.0,63.4,29.50,ESE,112,3.5,3.5,50,0.00,CLR,,0.00,WeatherDisplay:10.37,2013-08-26 02:50:00,
2013-08-25 21:55:00,84.0,63.9,29.50,East,90,3.5,3.5,51,0.00,CLR,,0.00,WeatherDisplay:10.37,2013-08-26 02:55:00,
2013-08-25 22:00:00,84.0,63.9,29.50,East,90,7.0,7.0,51,0.00,CLR,,0.00,WeatherDisplay:10.37,2013-08-26 03:00:00,
2013-08-25 22:05:00,84.0,63.9,29.50,East,90,3.5,3.5,51,0.00,CLR,,0.00,WeatherDisplay:10.37,2013-08-26 03:05:00,
2013-08-25 22:10:00,83.0,63.6,29.50,East,90,2.3,2.3,52,0.00,CLR,,0.00,WeatherDisplay:10.37,2013-08-26 03:10:00,
2013-08-25 22:15:00,83.0,63.6,29.51,East,90,3.5,3.5,52,0.00,CLR,,0.00,WeatherDisplay:10.37,2013-08-26 03:15:00,
2013-08-25 22:20:00,83.0,64.1,29.51,ENE,67,5.8,5.8,53,0.00,CLR,,0.00,WeatherDisplay:10.37,2013-08-26 03:20:00,
2013-08-25 22:25:00,83.0,64.6,29.51,East,90,3.5,3.5,54,0.00,CLR,,0.00,WeatherDisplay:10.37,2013-08-26 03:25:00,
2013-08-25 22:30:00,83.0,64.6,29.51,East,90,3.5,3.5,54,0.00,CLR,,0.00,WeatherDisplay:10.37,2013-08-26 03:30:00,
2013-08-25 22:35:00,83.0,64.6,29.51,East,90,5.8,5.8,54,0.00,CLR,,0.00,WeatherDisplay:10.37,2013-08-26 03:35:00,
2013-08-25 22:40:00,83.0,65.2,29.51,East,90,5.8,5.8,55,0.00,CLR,,0.00,WeatherDisplay:10.37,2013-08-26 03:40:00,
2013-08-25 22:46:00,82.0,64.2,29.51,East,90,4.6,4.6,55,0.00,CLR,,0.00,WeatherDisplay:10.37,2013-08-26 03:46:00,
2013-08-25 22:51:00,82.0,64.8,29.51,East,90,3.5,3.5,56,0.00,CLR,,0.00,WeatherDisplay:10.37,2013-08-26 03:51:00,
2013-08-25 22:56:00,82.0,65.3,29.51,East,90,4.0,4.0,57,0.00,CLR,,0.00,WeatherDisplay:10.37,2013-08-26 03:56:00,
2013-08-25 23:01:00,82.0,65.3,29.52,East,90,3.5,3.5,57,0.00,CLR,,0.00,WeatherDisplay:10.37,2013-08-26 04:01:00,
2013-08-25 23:06:00,82.0,65.3,29.52,East,90,5.0,5.0,57,0.00,CLR,,0.00,WeatherDisplay:10.37,2013-08-26 04:06:00,
2013-08-25 23:11:00,82.0,65.3,29.52,East,90,4.6,4.6,57,0.00,CLR,,0.00,WeatherDisplay:10.37,2013-08-26 04:11:00,
2013-08-25 23:16:00,82.0,65.3,29.52,East,90,4.6,4.6,57,0.00,CLR,,0.00,WeatherDisplay:10.37,2013-08-26 04:16:00,
2013-08-25 23:21:00,82.0,65.3,29.52,East,90,5.8,5.8,57,0.00,CLR,,0.00,WeatherDisplay:10.37,2013-08-26 04:21:00,
2013-08-25 23:26:00,81.0,64.3,29.52,East,90,6.0,6.0,57,0.00,CLR,,0.00,WeatherDisplay:10.37,2013-08-26 04:26:00,
2013-08-25 23:31:00,81.0,64.3,29.52,East,90,6.0,6.0,57,0.00,CLR,,0.00,WeatherDisplay:10.37,2013-08-26 04:31:00,
2013-08-25 23:36:00,81.0,64.3,29.52,East,90,5.8,5.8,57,0.00,CLR,,0.00,WeatherDisplay:10.37,2013-08-26 04:36:00,
2013-08-25 23:41:00,81.0,64.3,29.52,East,90,3.5,3.5,57,0.00,CLR,,0.00,WeatherDisplay:10.37,2013-08-26 04:41:00,
2013-08-25 23:46:00,81.0,64.3,29.52,East,90,5.0,5.0,57,0.00,CLR,,0.00,WeatherDisplay:10.37,2013-08-26 04:46:00,
2013-08-25 23:51:00,81.0,64.3,29.52,ENE,67,5.8,5.8,57,0.00,CLR,,0.00,WeatherDisplay:10.37,2013-08-26 04:51:00,
2013-08-25 23:56:00,81.0,64.3,29.52,East,90,4.6,4.6,57,0.00,CLR,,0.00,WeatherDisplay:10.37,2013-08-26 04:56:00,